Wolke Sonne

Wetter Ammerndorf

Gehe zu: Roßtal

Tageswerte vom Montag, 14.03.2022

Optionen

Tag:
Erweitert:

Alle Werte vom Montag, 14.03.2022

Einen Moment bitte, die Daten werden aufbereitet...

UhrzeitTemperaturBoden 10cmBoden 20cmFeuchteLuftdruckNiederschlagEvapotranspirationWindWindböenWindrichtungSolarstrahlungUV-IndexSonne?Uhrzeit
Diagramm IconDiagramm IconDiagramm IconDiagramm IconDiagramm IconDiagramm IconDiagramm IconDiagramm IconDiagramm IconDiagramm IconDiagramm IconDiagramm IconDiagramm Icon
00:00-2,1 °C 3,3 °C 3,9 °C 73 % 1020,9 hPa 0,0 mm - 0,0 km/h 0,0 km/h SSW 0,0 W/qm 0,0 nein 00:00
00:05-2,1 °C 3,3 °C 3,9 °C 73 % 1020,8 hPa 0,0 mm 0,0 mm 0,0 km/h 0,0 km/h SSW 0,0 W/qm 0,0 nein 00:05
00:10-1,9 °C 3,3 °C 3,9 °C 72 % 1020,6 hPa 0,0 mm 0,0 mm 0,0 km/h 0,0 km/h SSW 0,0 W/qm 0,0 nein 00:10
00:15-2,2 °C 3,3 °C 3,9 °C 73 % 1020,8 hPa 0,0 mm - 0,0 km/h 0,0 km/h SSW 0,0 W/qm 0,0 nein 00:15
00:20-2,4 °C 3,3 °C 3,9 °C 74 % 1020,7 hPa 0,0 mm - 0,0 km/h 0,0 km/h SSW 0,0 W/qm 0,0 nein 00:20
00:25-2,4 °C 3,3 °C 3,9 °C 74 % 1020,7 hPa 0,0 mm - 0,0 km/h 0,0 km/h SSW 0,0 W/qm 0,0 nein 00:25
00:30-2,2 °C 3,3 °C 3,9 °C 75 % 1020,8 hPa 0,0 mm - 0,0 km/h 1,4 km/h SSW 0,0 W/qm 0,0 nein 00:30
00:35-2,1 °C 3,3 °C 3,9 °C 74 % 1020,8 hPa 0,0 mm - 0,0 km/h 1,4 km/h SSW 0,0 W/qm 0,0 nein 00:35
00:40-2,3 °C 3,3 °C 3,9 °C 74 % 1020,9 hPa 0,0 mm - 0,0 km/h 1,4 km/h SSW 0,0 W/qm 0,0 nein 00:40
00:45-2,4 °C 3,3 °C 3,9 °C 75 % 1021,0 hPa 0,0 mm - 0,0 km/h 1,4 km/h SSW 0,0 W/qm 0,0 nein 00:45
00:50-2,6 °C 3,3 °C 3,9 °C 75 % 1021,3 hPa 0,0 mm - 0,0 km/h 0,0 km/h SSW 0,0 W/qm 0,0 nein 00:50
00:55-2,5 °C 3,3 °C 3,9 °C 75 % 1021,3 hPa 0,0 mm - 0,0 km/h 0,0 km/h SSW 0,0 W/qm 0,0 nein 00:55
01:00-2,4 °C 3,3 °C 3,9 °C 75 % 1021,2 hPa 0,0 mm - 0,0 km/h 0,0 km/h SSW 0,0 W/qm 0,0 nein 01:00
01:05-2,5 °C 3,3 °C 3,9 °C 75 % 1021,4 hPa 0,0 mm 0,0 mm 0,0 km/h 0,0 km/h SSW 0,0 W/qm 0,0 nein 01:05
01:10-2,7 °C 3,3 °C 3,9 °C 76 % 1021,3 hPa 0,0 mm 0,0 mm 0,0 km/h 0,0 km/h SSW 0,0 W/qm 0,0 nein 01:10
01:15-2,8 °C 3,3 °C 3,9 °C 76 % 1021,3 hPa 0,0 mm - 0,0 km/h 0,0 km/h SSW 0,0 W/qm 0,0 nein 01:15
01:20-2,8 °C 3,3 °C 3,9 °C 76 % 1021,4 hPa 0,0 mm - 0,0 km/h 0,0 km/h SSW 0,0 W/qm 0,0 nein 01:20
01:25-2,9 °C 3,3 °C 3,9 °C 76 % 1021,4 hPa 0,0 mm - 0,0 km/h 0,0 km/h SSW 0,0 W/qm 0,0 nein 01:25
01:30-2,9 °C 3,3 °C 3,9 °C 77 % 1021,5 hPa 0,0 mm - 0,0 km/h 0,0 km/h SSW 0,0 W/qm 0,0 nein 01:30
01:35-2,8 °C 3,3 °C 3,9 °C 77 % 1021,6 hPa 0,0 mm - 0,0 km/h 0,0 km/h SSW 0,0 W/qm 0,0 nein 01:35
01:40-2,9 °C 2,8 °C 3,9 °C 77 % 1021,6 hPa 0,0 mm - 0,0 km/h 0,0 km/h SSW 0,0 W/qm 0,0 nein 01:40
01:45-2,9 °C 2,8 °C 3,9 °C 77 % 1021,7 hPa 0,0 mm - 0,0 km/h 0,0 km/h SSW 0,0 W/qm 0,0 nein 01:45
01:50-3,0 °C 2,8 °C 3,9 °C 78 % 1021,9 hPa 0,0 mm - 0,0 km/h 0,0 km/h SSW 0,0 W/qm 0,0 nein 01:50
01:55-2,9 °C 2,8 °C 3,3 °C 78 % 1021,8 hPa 0,0 mm - 0,0 km/h 0,0 km/h SSW 0,0 W/qm 0,0 nein 01:55
UhrzeitTemperaturBoden 10cmBoden 20cmFeuchteLuftdruckNiederschlagEvapotranspirationWindWindböenWindrichtungSolarstrahlungUV-IndexSonne?Uhrzeit
02:00-3,0 °C 2,8 °C 3,3 °C 78 % 1021,7 hPa 0,0 mm - 0,0 km/h 0,0 km/h SSW 0,0 W/qm 0,0 nein 02:00
02:05-3,0 °C 2,8 °C 3,3 °C 78 % 1021,6 hPa 0,0 mm 0,0 mm 0,0 km/h 0,0 km/h SSW 0,0 W/qm 0,0 nein 02:05
02:10-3,2 °C 2,8 °C 3,3 °C 77 % 1021,8 hPa 0,0 mm 0,0 mm 0,0 km/h 0,0 km/h SSW 0,0 W/qm 0,0 nein 02:10
02:15-3,3 °C 2,8 °C 3,3 °C 78 % 1021,8 hPa 0,0 mm - 0,0 km/h 0,0 km/h SSW 0,0 W/qm 0,0 nein 02:15
02:20-3,4 °C 2,8 °C 3,3 °C 79 % 1021,9 hPa 0,0 mm - 0,0 km/h 0,0 km/h SSW 0,0 W/qm 0,0 nein 02:20
02:25-3,3 °C 2,8 °C 3,3 °C 79 % 1021,9 hPa 0,0 mm - 0,0 km/h 0,0 km/h SSW 0,0 W/qm 0,0 nein 02:25
02:30-3,4 °C 2,8 °C 3,3 °C 79 % 1022,0 hPa 0,0 mm - 0,0 km/h 0,0 km/h SSW 0,0 W/qm 0,0 nein 02:30
02:35-3,5 °C 2,8 °C 3,3 °C 79 % 1022,0 hPa 0,0 mm - 0,0 km/h 0,0 km/h SSW 0,0 W/qm 0,0 nein 02:35
02:40-3,6 °C 2,8 °C 3,3 °C 79 % 1022,2 hPa 0,0 mm - 0,0 km/h 0,0 km/h SSW 0,0 W/qm 0,0 nein 02:40
02:45-3,6 °C 2,8 °C 3,3 °C 79 % 1022,3 hPa 0,0 mm - 0,0 km/h 0,0 km/h SSW 0,0 W/qm 0,0 nein 02:45
02:50-3,5 °C 2,8 °C 3,3 °C 80 % 1022,5 hPa 0,0 mm - 0,0 km/h 0,0 km/h SSW 0,0 W/qm 0,0 nein 02:50
02:55-3,5 °C 2,8 °C 3,3 °C 79 % 1022,5 hPa 0,0 mm - 0,0 km/h 0,0 km/h SSW 0,0 W/qm 0,0 nein 02:55
03:00-3,4 °C 2,8 °C 3,3 °C 80 % 1022,4 hPa 0,0 mm - 0,0 km/h 0,0 km/h SSW 0,0 W/qm 0,0 nein 03:00
03:05-3,5 °C 2,8 °C 3,3 °C 79 % 1022,7 hPa 0,0 mm 0,0 mm 0,0 km/h 0,0 km/h SSW 0,0 W/qm 0,0 nein 03:05
03:10-3,6 °C 2,8 °C 3,3 °C 79 % 1022,8 hPa 0,0 mm 0,0 mm 0,0 km/h 0,0 km/h SSW 0,0 W/qm 0,0 nein 03:10
03:15-3,7 °C 2,8 °C 3,3 °C 79 % 1023,0 hPa 0,0 mm - 0,0 km/h 0,0 km/h SSW 0,0 W/qm 0,0 nein 03:15
03:20-3,8 °C 2,8 °C 3,3 °C 80 % 1023,2 hPa 0,0 mm - 0,0 km/h 0,0 km/h SSW 0,0 W/qm 0,0 nein 03:20
03:25-3,7 °C 2,8 °C 3,3 °C 81 % 1023,2 hPa 0,0 mm - 0,0 km/h 0,0 km/h SSW 0,0 W/qm 0,0 nein 03:25
03:30-3,6 °C 2,8 °C 3,3 °C 81 % 1023,3 hPa 0,0 mm - 0,0 km/h 0,0 km/h SSW 0,0 W/qm 0,0 nein 03:30
03:35-3,6 °C 2,8 °C 3,3 °C 81 % 1023,3 hPa 0,0 mm - 0,0 km/h 0,0 km/h SSW 0,0 W/qm 0,0 nein 03:35
03:40-3,7 °C 2,8 °C 3,3 °C 81 % 1023,4 hPa 0,0 mm - 0,0 km/h 0,0 km/h SSW 0,0 W/qm 0,0 nein 03:40
03:45-3,7 °C 2,8 °C 3,3 °C 82 % 1023,6 hPa 0,0 mm - 0,0 km/h 0,0 km/h SSW 0,0 W/qm 0,0 nein 03:45
03:50-3,7 °C 2,8 °C 3,3 °C 81 % 1023,5 hPa 0,0 mm - 0,0 km/h 0,0 km/h SSW 0,0 W/qm 0,0 nein 03:50
03:55-3,7 °C 2,8 °C 3,3 °C 82 % 1023,6 hPa 0,0 mm - 0,0 km/h 0,0 km/h SSW 0,0 W/qm 0,0 nein 03:55
UhrzeitTemperaturBoden 10cmBoden 20cmFeuchteLuftdruckNiederschlagEvapotranspirationWindWindböenWindrichtungSolarstrahlungUV-IndexSonne?Uhrzeit
04:00-3,5 °C 2,8 °C 3,3 °C 82 % 1023,9 hPa 0,0 mm - 0,0 km/h 0,0 km/h SSW 0,0 W/qm 0,0 nein 04:00
04:05-3,7 °C 2,8 °C 3,3 °C 81 % 1024,0 hPa 0,0 mm 0,0 mm 0,0 km/h 0,0 km/h SSW 0,0 W/qm 0,0 nein 04:05
04:10-3,7 °C 2,8 °C 3,3 °C 82 % 1024,1 hPa 0,0 mm 0,0 mm 0,0 km/h 0,0 km/h SSW 0,0 W/qm 0,0 nein 04:10
04:15-3,5 °C 2,8 °C 3,3 °C 82 % 1024,3 hPa 0,0 mm - 0,0 km/h 0,0 km/h SSW 0,0 W/qm 0,0 nein 04:15
04:20-3,4 °C 2,8 °C 3,3 °C 81 % 1024,3 hPa 0,0 mm - 0,0 km/h 0,0 km/h SSW 0,0 W/qm 0,0 nein 04:20
04:25-3,4 °C 2,8 °C 3,3 °C 81 % 1024,5 hPa 0,0 mm - 0,0 km/h 0,0 km/h SSW 0,0 W/qm 0,0 nein 04:25
04:30-3,3 °C 2,8 °C 3,3 °C 81 % 1024,5 hPa 0,0 mm - 0,0 km/h 0,0 km/h SSW 0,0 W/qm 0,0 nein 04:30
04:35-3,1 °C 2,8 °C 3,3 °C 81 % 1024,7 hPa 0,0 mm - 0,0 km/h 0,0 km/h SSW 0,0 W/qm 0,0 nein 04:35
04:40-2,9 °C 2,8 °C 3,3 °C 82 % 1024,6 hPa 0,0 mm - 0,0 km/h 0,0 km/h SSW 0,0 W/qm 0,0 nein 04:40
04:45-2,8 °C 2,8 °C 3,3 °C 82 % 1024,8 hPa 0,0 mm - 0,0 km/h 0,0 km/h SSW 0,0 W/qm 0,0 nein 04:45
04:50-2,7 °C 2,8 °C 3,3 °C 81 % 1025,0 hPa 0,0 mm - 0,0 km/h 0,0 km/h SSW 0,0 W/qm 0,0 nein 04:50
04:55-2,6 °C 2,8 °C 3,3 °C 80 % 1025,1 hPa 0,0 mm - 0,0 km/h 0,0 km/h WSW 0,0 W/qm 0,0 nein 04:55
05:00-2,4 °C 2,8 °C 3,3 °C 80 % 1025,1 hPa 0,0 mm - 0,0 km/h 0,0 km/h SW 0,0 W/qm 0,0 nein 05:00
05:05-2,1 °C 2,8 °C 3,3 °C 80 % 1025,3 hPa 0,0 mm 0,0 mm 1,4 km/h 4,7 km/h W 0,0 W/qm 0,0 nein 05:05
05:10-1,9 °C 2,8 °C 3,3 °C 79 % 1025,2 hPa 0,0 mm 0,0 mm 1,4 km/h 7,9 km/h SSW 0,0 W/qm 0,0 nein 05:10
05:15-1,7 °C 2,8 °C 3,3 °C 78 % 1025,4 hPa 0,0 mm - 1,4 km/h 9,7 km/h SW 0,0 W/qm 0,0 nein 05:15
05:20-1,6 °C 2,8 °C 3,3 °C 77 % 1025,4 hPa 0,0 mm - 1,4 km/h 9,7 km/h SW 0,0 W/qm 0,0 nein 05:20
05:25-1,4 °C 2,8 °C 3,3 °C 77 % 1025,4 hPa 0,0 mm - 0,0 km/h 7,9 km/h SW 0,0 W/qm 0,0 nein 05:25
05:30-1,5 °C 2,8 °C 3,3 °C 77 % 1025,4 hPa 0,0 mm - 0,0 km/h 6,5 km/h SW 0,0 W/qm 0,0 nein 05:30
05:35-1,5 °C 2,8 °C 3,3 °C 78 % 1025,5 hPa 0,0 mm - 0,0 km/h 4,7 km/h SW 0,0 W/qm 0,0 nein 05:35
05:40-1,5 °C 2,8 °C 3,3 °C 78 % 1025,5 hPa 0,0 mm - 0,0 km/h 1,4 km/h SW 0,0 W/qm 0,0 nein 05:40
05:45-1,4 °C 2,2 °C 3,3 °C 77 % 1025,5 hPa 0,0 mm - 0,0 km/h 0,0 km/h SW 0,0 W/qm 0,0 nein 05:45
05:50-1,3 °C 2,2 °C 3,3 °C 79 % 1025,3 hPa 0,0 mm - 1,4 km/h 0,0 km/h NO 0,0 W/qm 0,0 nein 05:50
05:55-1,2 °C 2,2 °C 3,3 °C 79 % 1025,4 hPa 0,0 mm - 1,4 km/h 4,7 km/h NO 0,0 W/qm 0,0 nein 05:55
UhrzeitTemperaturBoden 10cmBoden 20cmFeuchteLuftdruckNiederschlagEvapotranspirationWindWindböenWindrichtungSolarstrahlungUV-IndexSonne?Uhrzeit
06:00-1,1 °C 2,2 °C 3,3 °C 79 % 1025,2 hPa 0,0 mm - 0,0 km/h 4,7 km/h NO 0,0 W/qm 0,0 nein 06:00
06:05-0,9 °C 2,2 °C 3,3 °C 79 % 1025,2 hPa 0,0 mm 0,0 mm 1,4 km/h 6,5 km/h NO 0,0 W/qm 0,0 nein 06:05
06:10-0,7 °C 2,2 °C 3,3 °C 78 % 1025,2 hPa 0,0 mm 0,0 mm 1,4 km/h 6,5 km/h NNO 0,0 W/qm 0,0 nein 06:10
06:15-0,4 °C 2,2 °C 3,3 °C 78 % 1025,2 hPa 0,0 mm - 0,0 km/h 6,5 km/h NNO 0,0 W/qm 0,0 nein 06:15
06:20-0,2 °C 2,2 °C 3,3 °C 79 % 1025,4 hPa 0,0 mm - 0,0 km/h 6,5 km/h NNO 0,0 W/qm 0,0 nein 06:20
06:25-0,1 °C 2,2 °C 3,3 °C 79 % 1025,4 hPa 0,0 mm - 0,0 km/h 6,5 km/h O 0,0 W/qm 0,0 nein 06:25
06:300,1 °C 2,2 °C 3,3 °C 79 % 1025,4 hPa 0,0 mm - 0,0 km/h 4,7 km/h SO 0,0 W/qm 0,0 nein 06:30
06:350,3 °C 2,2 °C 3,3 °C 80 % 1025,6 hPa 0,0 mm - 0,0 km/h 4,7 km/h SSO 5,0 W/qm 0,0 nein 06:35
06:400,7 °C 2,2 °C 3,3 °C 83 % 1025,7 hPa 0,0 mm - 0,0 km/h 4,7 km/h SW 0,0 W/qm 0,0 nein 06:40
06:450,9 °C 2,2 °C 3,3 °C 82 % 1026,0 hPa 0,0 mm - 0,0 km/h 4,7 km/h SW 0,0 W/qm 0,0 nein 06:45
06:501,1 °C 2,2 °C 3,3 °C 83 % 1026,1 hPa 0,0 mm - 1,4 km/h 4,7 km/h SSW 0,0 W/qm 0,0 nein 06:50
06:551,2 °C 2,2 °C 3,3 °C 83 % 1026,3 hPa 0,0 mm - 1,4 km/h 13,0 km/h S 5,0 W/qm 0,0 nein 06:55
07:001,2 °C 2,2 °C 3,3 °C 83 % 1026,4 hPa 0,0 mm - 1,4 km/h 13,0 km/h S 5,0 W/qm 0,0 nein 07:00
07:051,3 °C 2,2 °C 3,3 °C 83 % 1026,4 hPa 0,0 mm 0,0 mm 1,4 km/h 6,5 km/h S 5,0 W/qm 0,0 nein 07:05
07:101,3 °C 2,2 °C 3,3 °C 83 % 1026,6 hPa 0,0 mm 0,0 mm 0,0 km/h 6,5 km/h S 9,0 W/qm 0,0 nein 07:10
07:151,4 °C 2,2 °C 3,3 °C 84 % 1026,6 hPa 0,0 mm - 0,0 km/h 3,2 km/h S 11,0 W/qm 0,0 nein 07:15
07:201,3 °C 2,2 °C 3,3 °C 84 % 1026,8 hPa 0,0 mm - 0,0 km/h 3,2 km/h S 11,0 W/qm 0,0 nein 07:20
07:251,3 °C 2,2 °C 3,3 °C 83 % 1026,9 hPa 0,0 mm - 0,0 km/h 3,2 km/h S 11,0 W/qm 0,0 nein 07:25
07:301,3 °C 2,2 °C 3,3 °C 83 % 1027,0 hPa 0,0 mm - 0,0 km/h 3,2 km/h S 9,0 W/qm 0,0 nein 07:30
07:351,3 °C 2,2 °C 3,3 °C 83 % 1027,1 hPa 0,0 mm - 0,0 km/h 3,2 km/h S 9,0 W/qm 0,0 nein 07:35
07:401,2 °C 2,2 °C 3,3 °C 83 % 1027,3 hPa 0,0 mm - 0,0 km/h 3,2 km/h S 9,0 W/qm 0,0 nein 07:40
07:451,2 °C 2,2 °C 3,3 °C 83 % 1027,4 hPa 0,0 mm - 0,0 km/h 3,2 km/h S 11,0 W/qm 0,0 nein 07:45
07:501,3 °C 2,2 °C 3,3 °C 84 % 1027,4 hPa 0,0 mm - 0,0 km/h 0,0 km/h S 14,0 W/qm 0,0 nein 07:50
07:551,3 °C 2,2 °C 3,3 °C 86 % 1027,5 hPa 0,2 mm - 0,0 km/h 0,0 km/h S 21,0 W/qm 0,0 nein 07:55
UhrzeitTemperaturBoden 10cmBoden 20cmFeuchteLuftdruckNiederschlagEvapotranspirationWindWindböenWindrichtungSolarstrahlungUV-IndexSonne?Uhrzeit
08:001,3 °C 2,2 °C 3,3 °C 87 % 1027,7 hPa 0,0 mm - 0,0 km/h 1,4 km/h S 28,0 W/qm 0,0 nein 08:00
08:051,5 °C 2,2 °C 3,3 °C 88 % 1027,8 hPa 0,0 mm 0,0 mm 0,0 km/h 3,2 km/h S 35,0 W/qm 0,0 nein 08:05
08:101,6 °C 2,2 °C 3,3 °C 88 % 1027,9 hPa 0,0 mm 0,0 mm 0,0 km/h 3,2 km/h S 42,0 W/qm 0,0 nein 08:10
08:151,8 °C 2,8 °C 3,3 °C 89 % 1027,9 hPa 0,0 mm - 0,0 km/h 3,2 km/h S 62,0 W/qm 0,0 nein 08:15
08:202,1 °C 2,8 °C 3,3 °C 89 % 1027,9 hPa 0,0 mm - 0,0 km/h 3,2 km/h S 74,0 W/qm 0,0 nein 08:20
08:252,3 °C 2,8 °C 3,3 °C 90 % 1027,9 hPa 0,0 mm - 0,0 km/h 1,4 km/h S 53,0 W/qm 0,0 nein 08:25
08:302,6 °C 2,8 °C 3,3 °C 90 % 1027,9 hPa 0,0 mm - 0,0 km/h 0,0 km/h S 40,0 W/qm 0,0 nein 08:30
08:352,7 °C 2,8 °C 3,3 °C 90 % 1028,0 hPa 0,0 mm - 0,0 km/h 0,0 km/h S 35,0 W/qm 0,0 nein 08:35
08:402,8 °C 2,8 °C 3,3 °C 91 % 1027,9 hPa 0,0 mm - 0,0 km/h 0,0 km/h S 44,0 W/qm 0,0 nein 08:40
08:453,3 °C 2,8 °C 3,3 °C 91 % 1027,7 hPa 0,0 mm - 0,0 km/h 0,0 km/h W 62,0 W/qm 0,0 nein 08:45
08:504,2 °C 2,8 °C 3,3 °C 92 % 1027,8 hPa 0,0 mm - 1,4 km/h 6,5 km/h WSW 53,0 W/qm 0,0 nein 08:50
08:554,7 °C 2,8 °C 3,3 °C 92 % 1027,9 hPa 0,2 mm - 1,4 km/h 13,0 km/h WSW 42,0 W/qm 0,0 nein 08:55
09:005,1 °C 2,8 °C 3,3 °C 92 % 1028,0 hPa 0,0 mm - 1,4 km/h 13,0 km/h WSW 35,0 W/qm 0,0 nein 09:00
09:055,3 °C 2,8 °C 3,3 °C 91 % 1027,9 hPa 0,0 mm 0,0 mm 1,4 km/h 13,0 km/h SSW 53,0 W/qm 0,0 nein 09:05
09:105,4 °C 2,8 °C 3,3 °C 91 % 1027,9 hPa 0,0 mm 0,0 mm 1,4 km/h 9,7 km/h WSW 86,0 W/qm 0,0 nein 09:10
09:155,4 °C 2,8 °C 3,3 °C 91 % 1028,0 hPa 0,0 mm - 0,0 km/h 9,7 km/h S 88,0 W/qm 0,0 nein 09:15
09:205,5 °C 2,8 °C 3,3 °C 91 % 1028,0 hPa 0,0 mm - 0,0 km/h 7,9 km/h S 153,0 W/qm 0,5 nein 09:20
09:255,7 °C 2,8 °C 3,3 °C 91 % 1028,0 hPa 0,0 mm - 0,0 km/h 3,2 km/h S 207,0 W/qm 0,6 nein 09:25
09:306,1 °C 2,8 °C 3,3 °C 91 % 1028,0 hPa 0,0 mm - 0,0 km/h 3,2 km/h S 181,0 W/qm 0,5 nein 09:30
09:356,2 °C 2,8 °C 3,3 °C 90 % 1028,1 hPa 0,0 mm - 1,4 km/h 4,7 km/h S 118,0 W/qm 0,0 nein 09:35
09:406,3 °C 2,8 °C 3,3 °C 90 % 1028,1 hPa 0,0 mm - 3,2 km/h 7,9 km/h SSW 93,0 W/qm 0,0 nein 09:40
09:456,4 °C 2,8 °C 3,3 °C 89 % 1028,1 hPa 0,0 mm - 3,2 km/h 7,9 km/h SSW 104,0 W/qm 0,0 nein 09:45
09:506,6 °C 2,8 °C 3,3 °C 88 % 1028,2 hPa 0,0 mm - 4,7 km/h 9,7 km/h SSW 128,0 W/qm 0,5 nein 09:50
09:556,7 °C 2,8 °C 3,3 °C 87 % 1028,2 hPa 0,0 mm - 4,7 km/h 17,6 km/h WSW 132,0 W/qm 0,0 nein 09:55
UhrzeitTemperaturBoden 10cmBoden 20cmFeuchteLuftdruckNiederschlagEvapotranspirationWindWindböenWindrichtungSolarstrahlungUV-IndexSonne?Uhrzeit
10:006,8 °C 2,8 °C 3,3 °C 87 % 1028,2 hPa 0,0 mm - 4,7 km/h 17,6 km/h SSW 174,0 W/qm 0,5 nein 10:00
10:056,9 °C 2,8 °C 3,3 °C 87 % 1028,4 hPa 0,0 mm 0,1 mm 4,7 km/h 13,0 km/h S 98,0 W/qm 0,0 nein 10:05
10:106,9 °C 2,8 °C 3,3 °C 86 % 1028,5 hPa 0,0 mm 0,1 mm 4,7 km/h 11,2 km/h SSW 118,0 W/qm 0,0 nein 10:10
10:156,9 °C 2,8 °C 3,3 °C 85 % 1028,6 hPa 0,0 mm - 6,5 km/h 14,4 km/h WSW 144,0 W/qm 0,5 nein 10:15
10:207,0 °C 2,8 °C 3,3 °C 85 % 1028,6 hPa 0,0 mm - 4,7 km/h 16,2 km/h WNW 116,0 W/qm 0,0 nein 10:20
10:257,1 °C 2,8 °C 3,3 °C 85 % 1028,6 hPa 0,0 mm - 3,2 km/h 16,2 km/h S 278,0 W/qm 0,9 ja 10:25
10:307,6 °C 2,8 °C 3,3 °C 84 % 1028,6 hPa 0,0 mm - 6,5 km/h 16,2 km/h SW 285,0 W/qm 1,0 ja 10:30
10:357,8 °C 2,8 °C 3,3 °C 82 % 1028,6 hPa 0,0 mm - 9,7 km/h 19,4 km/h SW 276,0 W/qm 0,8 ja 10:35
10:407,8 °C 2,8 °C 3,3 °C 80 % 1028,6 hPa 0,0 mm - 7,9 km/h 19,4 km/h SSW 206,0 W/qm 0,6 nein 10:40
10:457,8 °C 2,8 °C 3,3 °C 79 % 1028,6 hPa 0,0 mm - 7,9 km/h 20,9 km/h SW 132,0 W/qm 0,0 nein 10:45
10:507,8 °C 2,8 °C 3,3 °C 78 % 1028,8 hPa 0,0 mm - 7,9 km/h 20,9 km/h S 120,0 W/qm 0,0 nein 10:50
10:557,8 °C 2,8 °C 3,3 °C 78 % 1028,8 hPa 0,0 mm - 6,5 km/h 19,4 km/h S 221,0 W/qm 0,8 nein 10:55
11:008,1 °C 2,8 °C 3,3 °C 77 % 1028,8 hPa 0,0 mm - 4,7 km/h 16,2 km/h S 294,0 W/qm 1,4 ja 11:00
11:058,6 °C 2,8 °C 3,3 °C 77 % 1028,8 hPa 0,0 mm 0,2 mm 4,7 km/h 14,4 km/h WSW 223,0 W/qm 0,9 nein 11:05
11:108,6 °C 2,8 °C 3,3 °C 75 % 1028,9 hPa 0,0 mm 0,2 mm 6,5 km/h 14,4 km/h S 267,0 W/qm 1,0 ja 11:10
11:158,6 °C 2,8 °C 3,3 °C 74 % 1028,9 hPa 0,0 mm - 7,9 km/h 16,2 km/h SSW 271,0 W/qm 1,0 ja 11:15
11:208,6 °C 2,8 °C 3,3 °C 73 % 1029,0 hPa 0,0 mm - 6,5 km/h 20,9 km/h S 220,0 W/qm 0,8 nein 11:20
11:258,4 °C 2,8 °C 3,3 °C 74 % 1029,2 hPa 0,0 mm - 6,5 km/h 20,9 km/h S 130,0 W/qm 0,5 nein 11:25
11:308,2 °C 2,8 °C 3,3 °C 74 % 1029,3 hPa 0,0 mm - 7,9 km/h 22,7 km/h S 104,0 W/qm 0,0 nein 11:30
11:358,1 °C 3,3 °C 3,3 °C 75 % 1029,4 hPa 0,0 mm - 6,5 km/h 22,7 km/h WSW 84,0 W/qm 0,0 nein 11:35
11:408,0 °C 3,3 °C 3,3 °C 75 % 1029,5 hPa 0,0 mm - 7,9 km/h 22,7 km/h SW 135,0 W/qm 0,5 nein 11:40
11:458,1 °C 3,3 °C 3,3 °C 75 % 1029,5 hPa 0,0 mm - 6,5 km/h 22,7 km/h SO 153,0 W/qm 0,6 nein 11:45
11:508,0 °C 3,3 °C 3,3 °C 74 % 1029,6 hPa 0,0 mm - 7,9 km/h 19,4 km/h WSW 88,0 W/qm 0,0 nein 11:50
11:557,9 °C 3,3 °C 3,3 °C 74 % 1029,7 hPa 0,0 mm - 9,7 km/h 22,7 km/h SW 77,0 W/qm 0,0 nein 11:55
UhrzeitTemperaturBoden 10cmBoden 20cmFeuchteLuftdruckNiederschlagEvapotranspirationWindWindböenWindrichtungSolarstrahlungUV-IndexSonne?Uhrzeit
12:007,8 °C 3,3 °C 3,3 °C 75 % 1029,8 hPa 0,0 mm - 6,5 km/h 25,9 km/h SW 134,0 W/qm 0,0 nein 12:00
12:057,8 °C 3,3 °C 3,3 °C 76 % 1029,9 hPa 0,0 mm 0,3 mm 6,5 km/h 25,9 km/h WSW 199,0 W/qm 1,1 nein 12:05
12:107,9 °C 3,3 °C 3,3 °C 76 % 1029,8 hPa 0,0 mm 0,3 mm 6,5 km/h 17,6 km/h SW 142,0 W/qm 0,8 nein 12:10
12:157,9 °C 3,3 °C 3,3 °C 76 % 1029,8 hPa 0,0 mm - 4,7 km/h 17,6 km/h SW 176,0 W/qm 0,8 nein 12:15
12:207,8 °C 3,3 °C 3,3 °C 76 % 1029,8 hPa 0,0 mm - 6,5 km/h 17,6 km/h SSW 190,0 W/qm 0,9 nein 12:20
12:257,8 °C 3,3 °C 3,3 °C 77 % 1029,9 hPa 0,0 mm - 7,9 km/h 22,7 km/h W 230,0 W/qm 1,1 nein 12:25
12:308,2 °C 3,3 °C 3,3 °C 77 % 1029,7 hPa 0,0 mm - 7,9 km/h 22,7 km/h S 610,0 W/qm 1,8 ja 12:30
12:358,4 °C 3,3 °C 3,3 °C 74 % 1029,6 hPa 0,0 mm - 9,7 km/h 22,7 km/h SSW 267,0 W/qm 1,9 ja 12:35
12:408,9 °C 3,3 °C 3,3 °C 74 % 1029,5 hPa 0,0 mm - 9,7 km/h 22,7 km/h WSW 703,0 W/qm 2,1 ja 12:40
12:459,6 °C 3,3 °C 3,3 °C 72 % 1029,3 hPa 0,0 mm - 7,9 km/h 22,7 km/h SSW 664,0 W/qm 2,1 ja 12:45
12:509,7 °C 3,3 °C 3,3 °C 68 % 1029,2 hPa 0,0 mm - 7,9 km/h 22,7 km/h S 656,0 W/qm 2,0 ja 12:50
12:559,8 °C 3,3 °C 3,3 °C 68 % 1029,3 hPa 0,0 mm - 7,9 km/h 17,6 km/h S 668,0 W/qm 2,1 ja 12:55
13:0010,2 °C 3,3 °C 3,3 °C 65 % 1029,2 hPa 0,0 mm - 6,5 km/h 17,6 km/h WSW 139,0 W/qm 1,2 nein 13:00
13:059,6 °C 3,3 °C 3,3 °C 64 % 1029,4 hPa 0,0 mm 0,5 mm 7,9 km/h 20,9 km/h SSW 221,0 W/qm 2,0 nein 13:05
13:109,8 °C 3,3 °C 3,3 °C 65 % 1029,3 hPa 0,0 mm 0,5 mm 6,5 km/h 20,9 km/h SW 248,0 W/qm 1,9 ja 13:10
13:159,9 °C 3,3 °C 3,3 °C 64 % 1029,2 hPa 0,0 mm - 6,5 km/h 20,9 km/h NNW 304,0 W/qm 1,3 ja 13:15
13:2010,3 °C 3,3 °C 3,3 °C 64 % 1028,9 hPa 0,0 mm - 6,5 km/h 17,6 km/h SSW 650,0 W/qm 2,0 ja 13:20
13:2510,7 °C 3,3 °C 3,3 °C 62 % 1029,0 hPa 0,0 mm - 6,5 km/h 13,0 km/h SW 250,0 W/qm 1,2 ja 13:25
13:3010,3 °C 3,3 °C 3,3 °C 62 % 1029,0 hPa 0,0 mm - 6,5 km/h 16,2 km/h SSW 237,0 W/qm 1,1 ja 13:30
13:3510,1 °C 3,9 °C 3,3 °C 62 % 1029,0 hPa 0,0 mm - 6,5 km/h 17,6 km/h SW 264,0 W/qm 1,0 ja 13:35
13:4010,2 °C 3,9 °C 3,3 °C 62 % 1028,8 hPa 0,0 mm - 6,5 km/h 17,6 km/h SSO 385,0 W/qm 1,3 ja 13:40
13:4510,6 °C 3,9 °C 3,3 °C 62 % 1028,8 hPa 0,0 mm - 7,9 km/h 17,6 km/h SW 385,0 W/qm 1,2 ja 13:45
13:5010,7 °C 3,9 °C 3,3 °C 60 % 1028,7 hPa 0,0 mm - 7,9 km/h 17,6 km/h WSW 821,0 W/qm 1,6 ja 13:50
13:5510,9 °C 3,9 °C 3,3 °C 60 % 1028,7 hPa 0,0 mm - 6,5 km/h 17,6 km/h SSW 338,0 W/qm 1,3 ja 13:55
UhrzeitTemperaturBoden 10cmBoden 20cmFeuchteLuftdruckNiederschlagEvapotranspirationWindWindböenWindrichtungSolarstrahlungUV-IndexSonne?Uhrzeit
14:0010,7 °C 3,9 °C 3,3 °C 59 % 1028,7 hPa 0,0 mm - 6,5 km/h 17,6 km/h S 225,0 W/qm 0,9 nein 14:00
14:0510,7 °C 3,9 °C 3,3 °C 60 % 1028,8 hPa 0,0 mm 0,7 mm 7,9 km/h 16,2 km/h SW 185,0 W/qm 0,7 nein 14:05
14:1010,4 °C 3,9 °C 3,3 °C 61 % 1028,8 hPa 0,0 mm 0,7 mm 6,5 km/h 16,2 km/h S 169,0 W/qm 0,7 nein 14:10
14:1510,4 °C 3,9 °C 3,3 °C 60 % 1028,9 hPa 0,0 mm - 4,7 km/h 16,2 km/h W 188,0 W/qm 0,7 nein 14:15
14:2010,4 °C 3,9 °C 3,3 °C 59 % 1029,1 hPa 0,0 mm - 4,7 km/h 16,2 km/h W 195,0 W/qm 0,7 nein 14:20
14:2510,6 °C 3,9 °C 3,3 °C 59 % 1029,1 hPa 0,0 mm - 3,2 km/h 14,4 km/h SSW 302,0 W/qm 1,0 ja 14:25
14:3010,8 °C 3,9 °C 3,3 °C 59 % 1029,0 hPa 0,0 mm - 4,7 km/h 14,4 km/h SW 369,0 W/qm 1,4 ja 14:30
14:3511,1 °C 3,9 °C 3,3 °C 57 % 1028,9 hPa 0,0 mm - 7,9 km/h 14,4 km/h SSW 364,0 W/qm 1,5 ja 14:35
14:4011,7 °C 3,9 °C 3,3 °C 57 % 1028,8 hPa 0,0 mm - 7,9 km/h 17,6 km/h S 691,0 W/qm 1,5 ja 14:40
14:4511,6 °C 3,9 °C 3,3 °C 56 % 1028,7 hPa 0,0 mm - 7,9 km/h 17,6 km/h SW 631,0 W/qm 1,4 ja 14:45
14:5011,7 °C 3,9 °C 3,3 °C 55 % 1028,6 hPa 0,0 mm - 9,7 km/h 17,6 km/h S 213,0 W/qm 0,9 nein 14:50
14:5511,4 °C 3,9 °C 3,3 °C 52 % 1029,0 hPa 0,0 mm - 9,7 km/h 22,7 km/h S 220,0 W/qm 0,8 nein 14:55
15:0011,2 °C 3,9 °C 3,9 °C 55 % 1029,1 hPa 0,0 mm - 9,7 km/h 25,9 km/h SSW 214,0 W/qm 0,7 nein 15:00
15:0510,7 °C 3,9 °C 3,9 °C 59 % 1029,3 hPa 0,0 mm 0,9 mm 7,9 km/h 25,9 km/h NO 160,0 W/qm 0,7 nein 15:05
15:1010,3 °C 4,4 °C 3,9 °C 60 % 1029,4 hPa 0,0 mm 0,9 mm 3,2 km/h 19,4 km/h N 169,0 W/qm 0,6 nein 15:10
15:1510,2 °C 4,4 °C 3,9 °C 61 % 1029,5 hPa 0,0 mm - 3,2 km/h 19,4 km/h WSW 178,0 W/qm 0,6 nein 15:15
15:2010,3 °C 4,4 °C 3,9 °C 61 % 1029,5 hPa 0,0 mm - 1,4 km/h 14,4 km/h WNW 206,0 W/qm 0,7 nein 15:20
15:2510,4 °C 4,4 °C 3,9 °C 63 % 1029,5 hPa 0,0 mm - 1,4 km/h 11,2 km/h ONO 172,0 W/qm 0,6 nein 15:25
15:3010,3 °C 4,4 °C 3,9 °C 63 % 1029,5 hPa 0,0 mm - 1,4 km/h 11,2 km/h NNW 178,0 W/qm 0,6 nein 15:30
15:3510,2 °C 4,4 °C 3,9 °C 62 % 1029,5 hPa 0,0 mm - 1,4 km/h 11,2 km/h SW 200,0 W/qm 0,6 nein 15:35
15:4010,4 °C 4,4 °C 3,9 °C 63 % 1029,4 hPa 0,0 mm - 1,4 km/h 7,9 km/h ONO 199,0 W/qm 0,7 nein 15:40
15:4510,4 °C 4,4 °C 3,9 °C 62 % 1029,3 hPa 0,0 mm - 1,4 km/h 7,9 km/h WSW 146,0 W/qm 0,8 nein 15:45
15:5010,6 °C 4,4 °C 3,9 °C 60 % 1029,4 hPa 0,0 mm - 1,4 km/h 7,9 km/h SSW 322,0 W/qm 0,7 ja 15:50
15:5510,7 °C 4,4 °C 3,9 °C 59 % 1029,4 hPa 0,0 mm - 4,7 km/h 6,5 km/h SSW 374,0 W/qm 0,8 ja 15:55
UhrzeitTemperaturBoden 10cmBoden 20cmFeuchteLuftdruckNiederschlagEvapotranspirationWindWindböenWindrichtungSolarstrahlungUV-IndexSonne?Uhrzeit
16:0010,6 °C 4,4 °C 3,9 °C 60 % 1029,5 hPa 0,0 mm - 4,7 km/h 11,2 km/h SO 114,0 W/qm 0,7 nein 16:00
16:0510,4 °C 4,4 °C 3,9 °C 60 % 1029,5 hPa 0,0 mm 1,0 mm 1,4 km/h 16,2 km/h WSW 90,0 W/qm 0,6 nein 16:05
16:1010,2 °C 4,4 °C 3,9 °C 61 % 1029,4 hPa 0,0 mm 1,0 mm 1,4 km/h 16,2 km/h W 360,0 W/qm 0,6 ja 16:10
16:1510,2 °C 4,4 °C 3,9 °C 62 % 1029,5 hPa 0,0 mm - 1,4 km/h 11,2 km/h W 327,0 W/qm 0,6 ja 16:15
16:2010,4 °C 4,4 °C 3,9 °C 61 % 1029,5 hPa 0,0 mm - 0,0 km/h 11,2 km/h SW 301,0 W/qm 0,6 ja 16:20
16:2510,8 °C 4,4 °C 3,9 °C 59 % 1029,5 hPa 0,0 mm - 1,4 km/h 11,2 km/h NO 292,0 W/qm 0,5 ja 16:25
16:3010,7 °C 4,4 °C 3,9 °C 59 % 1029,4 hPa 0,0 mm - 3,2 km/h 6,5 km/h SSW 283,0 W/qm 0,5 ja 16:30
16:3510,8 °C 4,4 °C 3,9 °C 59 % 1029,5 hPa 0,0 mm - 3,2 km/h 9,7 km/h SSW 74,0 W/qm 0,0 nein 16:35
16:4010,4 °C 4,4 °C 3,9 °C 60 % 1029,5 hPa 0,0 mm - 3,2 km/h 9,7 km/h NW 91,0 W/qm 0,0 nein 16:40
16:4510,2 °C 4,4 °C 3,9 °C 60 % 1029,8 hPa 0,0 mm - 3,2 km/h 9,7 km/h S 81,0 W/qm 0,0 nein 16:45
16:5010,2 °C 4,4 °C 3,9 °C 60 % 1029,8 hPa 0,0 mm - 1,4 km/h 11,2 km/h WSW 111,0 W/qm 0,0 nein 16:50
16:5510,3 °C 4,4 °C 3,9 °C 60 % 1029,6 hPa 0,0 mm - 1,4 km/h 11,2 km/h SW 84,0 W/qm 0,0 nein 16:55
17:0010,2 °C 4,4 °C 3,9 °C 60 % 1029,6 hPa 0,0 mm - 1,4 km/h 11,2 km/h SSO 69,0 W/qm 0,0 nein 17:00
17:0510,0 °C 4,4 °C 3,9 °C 60 % 1029,8 hPa 0,0 mm 1,1 mm 1,4 km/h 7,9 km/h SW 109,0 W/qm 0,0 nein 17:05
17:1010,1 °C 4,4 °C 3,9 °C 60 % 1030,0 hPa 0,0 mm 1,1 mm 1,4 km/h 7,9 km/h SW 53,0 W/qm 0,0 nein 17:10
17:1510,2 °C 4,4 °C 3,9 °C 60 % 1030,1 hPa 0,0 mm - 1,4 km/h 7,9 km/h SSW 54,0 W/qm 0,0 nein 17:15
17:2010,2 °C 4,4 °C 3,9 °C 60 % 1030,2 hPa 0,0 mm - 1,4 km/h 7,9 km/h SSW 53,0 W/qm 0,0 nein 17:20
17:259,9 °C 4,4 °C 3,9 °C 63 % 1030,3 hPa 0,0 mm - 0,0 km/h 6,5 km/h SSW 60,0 W/qm 0,0 nein 17:25
17:309,9 °C 4,4 °C 3,9 °C 62 % 1030,3 hPa 0,0 mm - 1,4 km/h 6,5 km/h SW 54,0 W/qm 0,0 nein 17:30
17:359,7 °C 4,4 °C 3,9 °C 63 % 1030,3 hPa 0,0 mm - 1,4 km/h 6,5 km/h WSW 42,0 W/qm 0,0 nein 17:35
17:409,2 °C 4,4 °C 3,9 °C 65 % 1030,4 hPa 0,0 mm - 1,4 km/h 6,5 km/h WSW 33,0 W/qm 0,0 nein 17:40
17:458,7 °C 4,4 °C 3,9 °C 66 % 1030,5 hPa 0,0 mm - 1,4 km/h 6,5 km/h NO 26,0 W/qm 0,0 nein 17:45
17:508,3 °C 4,4 °C 3,9 °C 67 % 1030,6 hPa 0,0 mm - 1,4 km/h 6,5 km/h NO 21,0 W/qm 0,0 nein 17:50
17:558,2 °C 4,4 °C 3,9 °C 67 % 1030,7 hPa 0,0 mm - 0,0 km/h 6,5 km/h NO 16,0 W/qm 0,0 nein 17:55
UhrzeitTemperaturBoden 10cmBoden 20cmFeuchteLuftdruckNiederschlagEvapotranspirationWindWindböenWindrichtungSolarstrahlungUV-IndexSonne?Uhrzeit
18:007,7 °C 4,4 °C 3,9 °C 68 % 1030,7 hPa 0,0 mm - 0,0 km/h 6,5 km/h NO 14,0 W/qm 0,0 nein 18:00
18:057,1 °C 4,4 °C 3,9 °C 71 % 1030,9 hPa 0,0 mm 1,1 mm 0,0 km/h 3,2 km/h NO 12,0 W/qm 0,0 nein 18:05
18:106,7 °C 4,4 °C 3,9 °C 72 % 1031,0 hPa 0,0 mm 1,1 mm 0,0 km/h 3,2 km/h NO 11,0 W/qm 0,0 nein 18:10
18:156,1 °C 4,4 °C 3,9 °C 73 % 1031,1 hPa 0,0 mm - 0,0 km/h 3,2 km/h NO 7,0 W/qm 0,0 nein 18:15
18:205,7 °C 4,4 °C 3,9 °C 74 % 1031,1 hPa 0,0 mm - 0,0 km/h 3,2 km/h NO 5,0 W/qm 0,0 nein 18:20
18:255,4 °C 4,4 °C 3,9 °C 75 % 1031,3 hPa 0,0 mm - 0,0 km/h 0,0 km/h NO 0,0 W/qm 0,0 nein 18:25
18:305,1 °C 4,4 °C 3,9 °C 76 % 1031,3 hPa 0,0 mm - 0,0 km/h 0,0 km/h NO 0,0 W/qm 0,0 nein 18:30
18:354,8 °C 4,4 °C 3,9 °C 77 % 1031,5 hPa 0,0 mm - 0,0 km/h 0,0 km/h NO 0,0 W/qm 0,0 nein 18:35
18:404,4 °C 4,4 °C 3,9 °C 77 % 1031,5 hPa 0,0 mm - 0,0 km/h 0,0 km/h NO 0,0 W/qm 0,0 nein 18:40
18:454,2 °C 4,4 °C 3,9 °C 78 % 1031,6 hPa 0,0 mm - 0,0 km/h 0,0 km/h NO 0,0 W/qm 0,0 nein 18:45
18:503,9 °C 4,4 °C 3,9 °C 79 % 1031,5 hPa 0,0 mm - 0,0 km/h 0,0 km/h NO 0,0 W/qm 0,0 nein 18:50
18:553,8 °C 4,4 °C 3,9 °C 79 % 1031,6 hPa 0,0 mm - 0,0 km/h 0,0 km/h NO 0,0 W/qm 0,0 nein 18:55
19:003,4 °C 4,4 °C 3,9 °C 80 % 1031,8 hPa 0,0 mm - 0,0 km/h 0,0 km/h NO 0,0 W/qm 0,0 nein 19:00
19:053,3 °C 4,4 °C 3,9 °C 81 % 1031,8 hPa 0,0 mm 1,1 mm 0,0 km/h 0,0 km/h NO 0,0 W/qm 0,0 nein 19:05
19:103,0 °C 4,4 °C 3,9 °C 81 % 1031,8 hPa 0,0 mm 1,1 mm 0,0 km/h 0,0 km/h NO 0,0 W/qm 0,0 nein 19:10
19:153,0 °C 4,4 °C 3,9 °C 82 % 1031,9 hPa 0,0 mm - 0,0 km/h 0,0 km/h NO 0,0 W/qm 0,0 nein 19:15
19:202,7 °C 4,4 °C 3,9 °C 81 % 1032,1 hPa 0,0 mm - 0,0 km/h 0,0 km/h NO 0,0 W/qm 0,0 nein 19:20
19:252,4 °C 4,4 °C 3,9 °C 82 % 1032,1 hPa 0,0 mm - 0,0 km/h 0,0 km/h NO 0,0 W/qm 0,0 nein 19:25
19:302,5 °C 4,4 °C 3,9 °C 83 % 1032,2 hPa 0,0 mm - 0,0 km/h 0,0 km/h NO 0,0 W/qm 0,0 nein 19:30
19:352,5 °C 4,4 °C 3,9 °C 84 % 1032,4 hPa 0,0 mm - 0,0 km/h 0,0 km/h NO 0,0 W/qm 0,0 nein 19:35
19:402,8 °C 4,4 °C 3,9 °C 85 % 1032,4 hPa 0,0 mm - 0,0 km/h 0,0 km/h NO 0,0 W/qm 0,0 nein 19:40
19:452,3 °C 4,4 °C 3,9 °C 83 % 1032,5 hPa 0,0 mm - 0,0 km/h 0,0 km/h NO 0,0 W/qm 0,0 nein 19:45
19:501,8 °C 4,4 °C 3,9 °C 84 % 1032,5 hPa 0,0 mm - 0,0 km/h 0,0 km/h NO 0,0 W/qm 0,0 nein 19:50
19:551,8 °C 4,4 °C 3,9 °C 85 % 1032,4 hPa 0,0 mm - 0,0 km/h 0,0 km/h NO 0,0 W/qm 0,0 nein 19:55
UhrzeitTemperaturBoden 10cmBoden 20cmFeuchteLuftdruckNiederschlagEvapotranspirationWindWindböenWindrichtungSolarstrahlungUV-IndexSonne?Uhrzeit
20:001,7 °C 4,4 °C 3,9 °C 85 % 1032,4 hPa 0,0 mm - 0,0 km/h 0,0 km/h NO 0,0 W/qm 0,0 nein 20:00
20:051,5 °C 4,4 °C 3,9 °C 85 % 1032,6 hPa 0,0 mm 1,1 mm 0,0 km/h 0,0 km/h NO 0,0 W/qm 0,0 nein 20:05
20:101,3 °C 4,4 °C 3,9 °C 86 % 1032,7 hPa 0,0 mm 1,1 mm 0,0 km/h 0,0 km/h NO 0,0 W/qm 0,0 nein 20:10
20:151,3 °C 4,4 °C 3,9 °C 86 % 1032,7 hPa 0,0 mm - 0,0 km/h 0,0 km/h NO 0,0 W/qm 0,0 nein 20:15
20:201,2 °C 4,4 °C 3,9 °C 86 % 1032,6 hPa 0,0 mm - 0,0 km/h 0,0 km/h NO 0,0 W/qm 0,0 nein 20:20
20:250,9 °C 4,4 °C 3,9 °C 86 % 1032,8 hPa 0,0 mm - 0,0 km/h 0,0 km/h NO 0,0 W/qm 0,0 nein 20:25
20:300,6 °C 4,4 °C 3,9 °C 86 % 1032,9 hPa 0,0 mm - 0,0 km/h 0,0 km/h NO 0,0 W/qm 0,0 nein 20:30
20:350,7 °C 4,4 °C 3,9 °C 87 % 1032,9 hPa 0,0 mm - 0,0 km/h 0,0 km/h ONO 0,0 W/qm 0,0 nein 20:35
20:400,6 °C 4,4 °C 3,9 °C 87 % 1032,9 hPa 0,0 mm - 0,0 km/h 0,0 km/h ONO 0,0 W/qm 0,0 nein 20:40
20:450,6 °C 4,4 °C 3,9 °C 88 % 1033,0 hPa 0,0 mm - 0,0 km/h 0,0 km/h ONO 0,0 W/qm 0,0 nein 20:45
20:500,6 °C 3,9 °C 3,9 °C 88 % 1033,1 hPa 0,0 mm - 0,0 km/h 0,0 km/h ONO 0,0 W/qm 0,0 nein 20:50
20:550,5 °C 3,9 °C 3,9 °C 88 % 1033,2 hPa 0,0 mm - 0,0 km/h 0,0 km/h ONO 0,0 W/qm 0,0 nein 20:55
21:000,2 °C 3,9 °C 3,9 °C 88 % 1033,1 hPa 0,0 mm - 0,0 km/h 0,0 km/h ONO 0,0 W/qm 0,0 nein 21:00
21:050,1 °C 3,9 °C 3,9 °C 88 % 1033,1 hPa 0,0 mm 1,1 mm 0,0 km/h 0,0 km/h ONO 0,0 W/qm 0,0 nein 21:05
21:10-0,1 °C 3,9 °C 3,9 °C 88 % 1033,4 hPa 0,0 mm 1,1 mm 0,0 km/h 0,0 km/h ONO 0,0 W/qm 0,0 nein 21:10
21:150,1 °C 3,9 °C 3,9 °C 89 % 1033,3 hPa 0,0 mm - 0,0 km/h 0,0 km/h ONO 0,0 W/qm 0,0 nein 21:15
21:20-0,3 °C 3,9 °C 3,9 °C 88 % 1033,5 hPa 0,0 mm - 0,0 km/h 0,0 km/h ONO 0,0 W/qm 0,0 nein 21:20
21:25-0,3 °C 3,9 °C 3,9 °C 88 % 1033,5 hPa 0,0 mm - 0,0 km/h 0,0 km/h ONO 0,0 W/qm 0,0 nein 21:25
21:30-0,2 °C 3,9 °C 3,9 °C 89 % 1033,4 hPa 0,0 mm - 0,0 km/h 0,0 km/h ONO 0,0 W/qm 0,0 nein 21:30
21:35-0,3 °C 3,9 °C 3,9 °C 89 % 1033,4 hPa 0,0 mm - 0,0 km/h 0,0 km/h ONO 0,0 W/qm 0,0 nein 21:35
21:40-0,4 °C 3,9 °C 3,9 °C 89 % 1033,5 hPa 0,0 mm - 0,0 km/h 0,0 km/h ONO 0,0 W/qm 0,0 nein 21:40
21:45-0,5 °C 3,9 °C 3,9 °C 89 % 1033,5 hPa 0,0 mm - 0,0 km/h 0,0 km/h ONO 0,0 W/qm 0,0 nein 21:45
21:50-0,7 °C 3,9 °C 3,9 °C 89 % 1033,6 hPa 0,0 mm - 0,0 km/h 0,0 km/h ONO 0,0 W/qm 0,0 nein 21:50
21:55-0,9 °C 3,9 °C 3,9 °C 89 % 1033,6 hPa 0,0 mm - 0,0 km/h 0,0 km/h ONO 0,0 W/qm 0,0 nein 21:55
UhrzeitTemperaturBoden 10cmBoden 20cmFeuchteLuftdruckNiederschlagEvapotranspirationWindWindböenWindrichtungSolarstrahlungUV-IndexSonne?Uhrzeit
22:00-0,8 °C 3,9 °C 3,9 °C 90 % 1033,5 hPa 0,0 mm - 0,0 km/h 0,0 km/h ONO 0,0 W/qm 0,0 nein 22:00
22:05-0,9 °C 3,9 °C 3,9 °C 90 % 1033,6 hPa 0,0 mm 1,1 mm 0,0 km/h 0,0 km/h ONO 0,0 W/qm 0,0 nein 22:05
22:10-0,8 °C 3,9 °C 3,9 °C 90 % 1033,7 hPa 0,0 mm 1,1 mm 0,0 km/h 3,2 km/h ONO 0,0 W/qm 0,0 nein 22:10
22:15-1,0 °C 3,9 °C 3,9 °C 90 % 1033,6 hPa 0,0 mm - 0,0 km/h 3,2 km/h ONO 0,0 W/qm 0,0 nein 22:15
22:20-0,9 °C 3,9 °C 3,9 °C 90 % 1033,5 hPa 0,0 mm - 0,0 km/h 3,2 km/h ONO 0,0 W/qm 0,0 nein 22:20
22:25-0,7 °C 3,9 °C 3,9 °C 91 % 1033,6 hPa 0,0 mm - 0,0 km/h 0,0 km/h ONO 0,0 W/qm 0,0 nein 22:25
22:30-0,8 °C 3,9 °C 3,9 °C 90 % 1033,6 hPa 0,0 mm - 0,0 km/h 0,0 km/h ONO 0,0 W/qm 0,0 nein 22:30
22:35-0,8 °C 3,9 °C 3,9 °C 91 % 1033,5 hPa 0,0 mm - 0,0 km/h 0,0 km/h ONO 0,0 W/qm 0,0 nein 22:35
22:40-0,9 °C 3,9 °C 3,9 °C 90 % 1033,5 hPa 0,0 mm - 0,0 km/h 0,0 km/h ONO 0,0 W/qm 0,0 nein 22:40
22:45-0,9 °C 3,9 °C 3,9 °C 91 % 1033,5 hPa 0,0 mm - 0,0 km/h 0,0 km/h ONO 0,0 W/qm 0,0 nein 22:45
22:50-1,0 °C 3,9 °C 3,9 °C 90 % 1033,5 hPa 0,0 mm - 0,0 km/h 0,0 km/h ONO 0,0 W/qm 0,0 nein 22:50
22:55-1,0 °C 3,9 °C 3,9 °C 90 % 1033,4 hPa 0,0 mm - 0,0 km/h 0,0 km/h ONO 0,0 W/qm 0,0 nein 22:55
23:00-1,0 °C 3,9 °C 3,9 °C 91 % 1033,3 hPa 0,0 mm - 0,0 km/h 0,0 km/h ONO 0,0 W/qm 0,0 nein 23:00
23:05-1,1 °C 3,9 °C 3,9 °C 91 % 1033,4 hPa 0,0 mm 1,1 mm 0,0 km/h 0,0 km/h ONO 0,0 W/qm 0,0 nein 23:05
23:10-1,1 °C 3,9 °C 3,9 °C 91 % 1033,4 hPa 0,0 mm 1,1 mm 0,0 km/h 0,0 km/h ONO 0,0 W/qm 0,0 nein 23:10
23:15-1,3 °C 3,9 °C 3,9 °C 91 % 1033,3 hPa 0,0 mm - 0,0 km/h 0,0 km/h ONO 0,0 W/qm 0,0 nein 23:15
23:20-1,2 °C 3,9 °C 3,9 °C 91 % 1033,4 hPa 0,0 mm - 0,0 km/h 0,0 km/h ONO 0,0 W/qm 0,0 nein 23:20
23:25-1,4 °C 3,9 °C 3,9 °C 91 % 1033,4 hPa 0,0 mm - 0,0 km/h 0,0 km/h ONO 0,0 W/qm 0,0 nein 23:25
23:30-1,4 °C 3,9 °C 3,9 °C 91 % 1033,4 hPa 0,0 mm - 0,0 km/h 0,0 km/h ONO 0,0 W/qm 0,0 nein 23:30
23:35-1,5 °C 3,9 °C 3,9 °C 91 % 1033,5 hPa 0,0 mm - 0,0 km/h 0,0 km/h ONO 0,0 W/qm 0,0 nein 23:35
23:40-1,4 °C 3,9 °C 3,9 °C 91 % 1033,4 hPa 0,0 mm - 0,0 km/h 0,0 km/h ONO 0,0 W/qm 0,0 nein 23:40
23:45-1,4 °C 3,9 °C 3,9 °C 91 % 1033,5 hPa 0,0 mm - 0,0 km/h 0,0 km/h ONO 0,0 W/qm 0,0 nein 23:45
23:50-1,4 °C 3,9 °C 3,9 °C 91 % 1033,4 hPa 0,0 mm - 0,0 km/h 0,0 km/h ONO 0,0 W/qm 0,0 nein 23:50
23:55-1,4 °C 3,9 °C 3,9 °C 91 % 1033,4 hPa 0,0 mm - 0,0 km/h 0,0 km/h ONO 0,0 W/qm 0,0 nein 23:55
Gesamt: 3,1 °C 3,4 °C 3,6 °C 78 % 1028,2 hPa 0,4 mm 23,2 mm 1,8 km/h 6,5 km/h 0 84,4 W/qm 0,3 ja

Insgesamt 288 Zeilen mal 13 Spalten = 3744 Werte werden angezeigt.

www.wetter-rosstal.de   •   www.wetter-franken.de   •   www.lightningmaps.org   •   Start   •   Kontakt / Datenschutz   •   PC-Kümmerer